createdAt,value
2018-06-30T00:02:23.352Z,1.70
2018-06-30T00:04:53.663Z,2.50
2018-06-30T00:07:23.757Z,2.00
2018-06-30T00:09:53.205Z,2.97
2018-06-30T00:12:22.455Z,2.07
2018-06-30T00:14:51.760Z,1.57
2018-06-30T00:17:21.165Z,2.50
2018-06-30T00:19:50.531Z,1.67
2018-06-30T00:22:19.859Z,1.60
2018-06-30T00:24:49.234Z,1.60
2018-06-30T00:27:23.563Z,1.60
2018-06-30T00:29:53.025Z,1.37
2018-06-30T00:32:22.342Z,2.03
2018-06-30T00:34:51.765Z,2.20
2018-06-30T00:37:21.449Z,2.37
2018-06-30T00:39:51.108Z,2.80
2018-06-30T00:42:20.426Z,2.57
2018-06-30T00:44:50.376Z,1.57
2018-06-30T00:47:19.729Z,2.50
2018-06-30T00:49:49.177Z,1.23
2018-06-30T00:52:18.467Z,1.70
2018-06-30T00:54:47.777Z,2.30
2018-06-30T00:57:17.101Z,2.33
2018-06-30T00:59:46.535Z,2.73
2018-06-30T01:02:15.866Z,1.83
2018-06-30T01:04:45.180Z,1.27
2018-06-30T01:07:14.462Z,2.20
2018-06-30T01:09:43.730Z,1.17
2018-06-30T01:12:13.077Z,1.37
2018-06-30T01:14:42.424Z,1.77
2018-06-30T01:17:11.729Z,1.53
2018-06-30T01:19:40.970Z,2.33
2018-06-30T01:22:10.279Z,1.53
2018-06-30T01:24:39.545Z,1.43
2018-06-30T01:27:08.852Z,1.47
2018-06-30T01:29:38.109Z,2.27
2018-06-30T01:32:07.607Z,1.33
2018-06-30T01:34:36.931Z,2.33
2018-06-30T01:37:06.337Z,2.40
2018-06-30T01:39:35.585Z,1.63
2018-06-30T01:42:04.908Z,2.77
2018-06-30T01:44:34.186Z,1.63
2018-06-30T01:47:03.245Z,1.57
2018-06-30T01:49:32.479Z,1.23
2018-06-30T01:52:01.784Z,2.30
2018-06-30T01:54:31.081Z,1.43
2018-06-30T01:57:00.413Z,1.77
2018-06-30T01:59:29.713Z,1.87
2018-06-30T02:01:58.722Z,1.37
2018-06-30T02:04:27.971Z,1.70
2018-06-30T02:06:57.226Z,1.17
2018-06-30T02:09:26.446Z,1.73
2018-06-30T02:11:55.467Z,1.60
2018-06-30T02:14:24.726Z,1.70
2018-06-30T02:16:54.090Z,1.07
2018-06-30T02:19:23.434Z,1.80
2018-06-30T02:21:52.922Z,1.77
2018-06-30T02:24:22.220Z,1.03
2018-06-30T02:26:51.839Z,1.40
2018-06-30T02:29:21.228Z,1.87
2018-06-30T02:31:50.565Z,1.33
2018-06-30T02:34:19.919Z,1.77
2018-06-30T02:36:49.319Z,1.43
2018-06-30T02:39:18.883Z,1.90
2018-06-30T02:41:48.166Z,2.10
2018-06-30T02:44:17.558Z,1.53
2018-06-30T02:46:46.827Z,1.27
2018-06-30T02:49:16.108Z,2.17
2018-06-30T02:51:45.339Z,1.40
2018-06-30T02:54:14.602Z,0.90
2018-06-30T02:56:43.890Z,2.27
2018-06-30T02:59:13.178Z,2.43
2018-06-30T03:01:42.435Z,1.13
2018-06-30T03:04:11.721Z,1.83
2018-06-30T03:06:41.040Z,1.27
2018-06-30T03:09:10.866Z,1.40
2018-06-30T03:11:40.614Z,1.30
2018-06-30T03:14:09.642Z,1.07
2018-06-30T03:16:39.161Z,1.37
2018-06-30T03:19:08.530Z,1.87
2018-06-30T03:21:37.916Z,2.30
2018-06-30T03:24:07.268Z,1.27
2018-06-30T03:26:36.543Z,2.77
2018-06-30T03:29:05.869Z,1.70
2018-06-30T03:31:35.169Z,1.93
2018-06-30T03:34:04.489Z,1.47
2018-06-30T03:36:33.738Z,1.33
2018-06-30T03:39:03.066Z,1.83
2018-06-30T03:41:32.427Z,1.20
2018-06-30T03:44:01.779Z,2.50
2018-06-30T03:46:31.107Z,1.67
2018-06-30T03:49:00.449Z,1.27
2018-06-30T03:51:29.735Z,1.17
2018-06-30T03:53:58.782Z,1.47
2018-06-30T03:56:28.060Z,1.50
2018-06-30T03:58:57.332Z,1.60
2018-06-30T04:01:26.676Z,1.67
2018-06-30T04:03:55.962Z,2.30
2018-06-30T04:06:25.193Z,1.37
2018-06-30T04:08:54.574Z,1.00
2018-06-30T04:11:23.875Z,1.40
2018-06-30T04:13:53.226Z,0.90
2018-06-30T04:16:22.527Z,1.60
2018-06-30T04:18:51.885Z,1.47
2018-06-30T04:21:21.232Z,1.37
2018-06-30T04:23:50.552Z,1.40
2018-06-30T04:26:19.883Z,1.67
2018-06-30T04:28:49.147Z,1.97
2018-06-30T04:31:18.483Z,2.10
2018-06-30T04:33:47.855Z,1.30
2018-06-30T04:36:17.228Z,2.30
2018-06-30T04:38:46.487Z,1.77
2018-06-30T04:41:15.619Z,1.87
2018-06-30T04:43:44.882Z,1.67
2018-06-30T04:46:14.364Z,1.70
2018-06-30T04:48:43.818Z,2.93
2018-06-30T04:51:13.103Z,2.57
2018-06-30T04:53:42.379Z,3.50
2018-06-30T04:56:12.219Z,4.10
2018-06-30T04:58:41.224Z,4.30
2018-06-30T05:01:11.527Z,4.37
2018-06-30T05:03:40.786Z,5.33
2018-06-30T05:06:10.076Z,2.93
2018-06-30T05:08:39.783Z,5.33
2018-06-30T05:11:09.212Z,3.30
2018-06-30T05:13:38.541Z,3.77
2018-06-30T05:16:07.915Z,4.80
2018-06-30T05:18:37.238Z,3.83
2018-06-30T05:21:06.568Z,3.97
2018-06-30T05:23:35.954Z,4.57
2018-06-30T05:26:05.259Z,3.07
2018-06-30T05:28:34.554Z,3.00
2018-06-30T05:31:03.858Z,3.37
2018-06-30T05:33:33.215Z,3.37
2018-06-30T05:36:02.457Z,3.30
2018-06-30T05:38:31.774Z,2.95
2018-06-30T05:41:01.110Z,2.83
2018-06-30T05:43:30.355Z,3.30
2018-06-30T05:45:59.642Z,3.42
2018-06-30T05:48:28.896Z,3.55
2018-06-30T05:50:58.247Z,3.50
2018-06-30T05:53:27.560Z,3.75
2018-06-30T05:55:56.942Z,2.52
2018-06-30T05:58:26.317Z,2.33
2018-06-30T06:00:55.720Z,2.72
2018-06-30T06:03:25.026Z,2.90
2018-06-30T06:05:54.421Z,2.85
2018-06-30T06:08:23.763Z,2.70
2018-06-30T06:10:53.151Z,3.12
2018-06-30T06:13:22.264Z,2.80
2018-06-30T06:15:51.544Z,3.17
2018-06-30T06:18:20.822Z,2.33
2018-06-30T06:20:50.161Z,3.60
2018-06-30T06:23:19.612Z,3.10
2018-06-30T06:25:49.016Z,3.15
2018-06-30T06:28:18.334Z,3.55
2018-06-30T06:30:47.661Z,3.15
2018-06-30T06:33:16.966Z,3.30
2018-06-30T06:35:46.307Z,3.52
2018-06-30T06:38:15.618Z,3.83
2018-06-30T06:40:44.958Z,4.17
2018-06-30T06:43:14.322Z,3.52
2018-06-30T06:45:43.639Z,3.20
2018-06-30T06:48:12.955Z,3.80
2018-06-30T06:50:42.306Z,4.05
2018-06-30T06:53:11.567Z,3.22
2018-06-30T06:55:41.057Z,3.77
2018-06-30T06:58:10.575Z,3.58
2018-06-30T07:00:40.057Z,3.62
2018-06-30T07:03:09.441Z,2.47
2018-06-30T07:05:39.907Z,3.22
2018-06-30T07:08:09.258Z,3.63
2018-06-30T07:10:38.678Z,4.27
2018-06-30T07:13:08.165Z,3.73
2018-06-30T07:15:37.504Z,3.63
2018-06-30T07:18:07.045Z,4.00
2018-06-30T07:20:36.402Z,2.53
2018-06-30T07:23:05.851Z,3.63
2018-06-30T07:25:35.440Z,3.67
2018-06-30T07:28:04.852Z,4.27
2018-06-30T07:30:34.066Z,3.57
2018-06-30T07:33:03.493Z,2.90
2018-06-30T07:35:32.862Z,3.93
2018-06-30T07:38:02.262Z,5.43
2018-06-30T07:40:31.773Z,5.17
2018-06-30T07:43:01.134Z,4.17
2018-06-30T07:45:31.457Z,3.67
2018-06-30T07:48:00.942Z,4.20
2018-06-30T07:50:30.281Z,3.27
2018-06-30T07:52:59.654Z,3.47
2018-06-30T07:55:28.992Z,4.53
2018-06-30T07:57:58.404Z,4.00
2018-06-30T08:00:27.946Z,4.00
2018-06-30T08:02:57.355Z,4.60
2018-06-30T08:05:26.811Z,3.77
2018-06-30T08:07:56.328Z,4.20
2018-06-30T08:10:25.658Z,3.80
2018-06-30T08:12:54.978Z,2.50
2018-06-30T08:15:24.434Z,3.13
2018-06-30T08:17:53.859Z,2.43
2018-06-30T08:20:23.506Z,3.00
2018-06-30T08:22:53.465Z,2.97
2018-06-30T08:25:23.076Z,2.67
2018-06-30T08:27:52.457Z,3.13
2018-06-30T08:30:21.899Z,3.80
2018-06-30T08:32:51.303Z,3.00
2018-06-30T08:35:20.824Z,2.23
2018-06-30T08:37:50.060Z,3.03
2018-06-30T08:40:19.607Z,2.83
2018-06-30T08:42:49.034Z,3.00
2018-06-30T08:45:18.645Z,2.53
2018-06-30T08:47:48.203Z,3.53
2018-06-30T08:50:17.719Z,2.67
2018-06-30T08:52:46.866Z,2.73
2018-06-30T08:55:16.468Z,2.53
2018-06-30T08:57:45.943Z,1.93
2018-06-30T09:00:15.502Z,2.30
2018-06-30T09:02:44.871Z,2.43
2018-06-30T09:05:14.254Z,2.20
2018-06-30T09:07:43.627Z,2.20
2018-06-30T09:10:13.130Z,2.40
2018-06-30T09:12:42.442Z,1.60
2018-06-30T09:15:11.820Z,2.37
2018-06-30T09:17:41.186Z,1.87
2018-06-30T09:20:10.626Z,1.70
2018-06-30T09:22:40.281Z,1.87
2018-06-30T09:25:09.675Z,2.03
2018-06-30T09:27:38.961Z,1.67
2018-06-30T09:30:09.567Z,2.33
2018-06-30T09:32:38.856Z,2.80
2018-06-30T09:35:08.175Z,2.40
2018-06-30T09:37:37.479Z,2.47
2018-06-30T09:40:06.919Z,2.30
2018-06-30T09:42:36.186Z,2.43
2018-06-30T09:45:05.571Z,1.90
2018-06-30T09:47:34.827Z,2.43
2018-06-30T09:50:04.115Z,2.13
2018-06-30T09:52:33.430Z,2.20
2018-06-30T09:55:02.795Z,1.57
2018-06-30T09:57:32.061Z,1.80
2018-06-30T10:00:01.492Z,1.33
2018-06-30T10:02:30.748Z,1.70
2018-06-30T10:05:00.080Z,1.93
2018-06-30T10:07:29.479Z,2.20
2018-06-30T10:09:58.782Z,1.60
2018-06-30T10:12:28.250Z,1.83
2018-06-30T10:14:57.573Z,1.73
2018-06-30T10:17:26.564Z,2.27
2018-06-30T10:19:55.827Z,1.85
2018-06-30T10:22:25.130Z,1.70
2018-06-30T10:24:54.493Z,1.10
2018-06-30T10:27:23.791Z,1.55
2018-06-30T10:29:53.159Z,1.43
2018-06-30T10:32:22.876Z,1.35
2018-06-30T10:34:52.278Z,2.03
2018-06-30T10:37:21.801Z,1.50
2018-06-30T10:39:51.194Z,1.73
2018-06-30T10:42:20.514Z,2.00
2018-06-30T10:44:50.070Z,1.30
2018-06-30T10:47:19.452Z,1.10
2018-06-30T10:49:48.952Z,1.40
2018-06-30T10:52:18.407Z,1.07
2018-06-30T10:54:47.694Z,1.17
2018-06-30T10:57:16.734Z,1.70
2018-06-30T10:59:45.979Z,1.10
2018-06-30T11:02:15.432Z,1.70
2018-06-30T11:04:44.576Z,1.52
2018-06-30T11:07:13.904Z,1.82
2018-06-30T11:09:43.187Z,1.90
2018-06-30T11:12:12.830Z,1.02
2018-06-30T11:14:42.628Z,1.40
2018-06-30T11:17:12.093Z,1.10
2018-06-30T11:19:41.634Z,1.15
2018-06-30T11:22:10.706Z,1.67
2018-06-30T11:24:40.086Z,1.10
2018-06-30T11:27:09.269Z,1.00
2018-06-30T11:29:38.624Z,1.25
2018-06-30T11:32:07.954Z,1.10
2018-06-30T11:34:37.794Z,1.67
2018-06-30T11:37:07.279Z,2.08
2018-06-30T11:39:36.619Z,1.00
2018-06-30T11:42:06.453Z,1.87
2018-06-30T11:44:36.339Z,1.15
2018-06-30T11:47:05.941Z,1.40
2018-06-30T11:49:35.421Z,1.50
2018-06-30T11:52:04.833Z,1.30
2018-06-30T11:54:34.182Z,1.50
2018-06-30T11:57:03.610Z,1.42
2018-06-30T11:59:32.945Z,1.50
2018-06-30T12:02:02.084Z,1.32
2018-06-30T12:04:31.288Z,1.50
2018-06-30T12:07:00.613Z,1.35
2018-06-30T12:09:29.927Z,1.40
2018-06-30T12:11:59.195Z,0.95
2018-06-30T12:14:28.165Z,1.30
2018-06-30T12:16:57.354Z,1.50
2018-06-30T12:19:26.743Z,1.25
2018-06-30T12:21:56.134Z,0.93
2018-06-30T12:24:25.300Z,1.15
2018-06-30T12:26:54.795Z,0.90
2018-06-30T12:29:24.256Z,1.30
2018-06-30T12:31:53.588Z,1.15
2018-06-30T12:34:23.047Z,1.37
2018-06-30T12:36:52.340Z,1.25
2018-06-30T12:39:21.766Z,1.42
2018-06-30T12:41:51.112Z,1.50
2018-06-30T12:44:20.591Z,1.10
2018-06-30T12:46:49.898Z,1.27
2018-06-30T12:49:19.237Z,1.47
2018-06-30T12:51:48.545Z,1.27
2018-06-30T12:54:18.102Z,1.25
2018-06-30T12:56:47.233Z,1.05
2018-06-30T12:59:16.553Z,1.70
2018-06-30T13:01:45.691Z,1.30
2018-06-30T13:04:15.124Z,1.17
2018-06-30T13:06:44.462Z,0.98
2018-06-30T13:09:14.211Z,1.50
2018-06-30T13:11:43.619Z,1.22
2018-06-30T13:14:12.977Z,1.20
2018-06-30T13:16:42.239Z,0.80
2018-06-30T13:19:11.683Z,0.80
2018-06-30T13:21:40.859Z,1.30
2018-06-30T13:24:10.236Z,1.52
2018-06-30T13:26:39.594Z,1.47
2018-06-30T13:29:09.016Z,1.10
2018-06-30T13:31:38.506Z,1.25
2018-06-30T13:34:08.550Z,1.30
2018-06-30T13:36:37.994Z,1.30
2018-06-30T13:39:12.861Z,1.20
2018-06-30T13:41:42.635Z,1.00
2018-06-30T13:44:12.698Z,0.88
2018-06-30T13:46:42.111Z,1.00
2018-06-30T13:49:11.629Z,1.10
2018-06-30T13:51:40.829Z,1.20
2018-06-30T13:54:10.225Z,1.40
2018-06-30T13:56:39.726Z,1.20
2018-06-30T13:59:09.138Z,1.15
2018-06-30T14:01:38.612Z,1.40
2018-06-30T14:04:07.767Z,1.45
2018-06-30T14:06:38.015Z,1.52
2018-06-30T14:09:10.427Z,0.90
2018-06-30T14:11:40.094Z,1.00
2018-06-30T14:14:10.007Z,1.27
2018-06-30T14:16:40.152Z,1.30
2018-06-30T14:19:09.647Z,1.30
2018-06-30T14:21:39.095Z,0.95
2018-06-30T14:24:08.407Z,1.32
2018-06-30T14:26:38.389Z,1.32
2018-06-30T14:29:07.816Z,1.35
2018-06-30T14:31:36.977Z,1.37
2018-06-30T14:34:06.601Z,0.85
2018-06-30T14:36:36.062Z,1.00
2018-06-30T14:39:10.652Z,1.40
2018-06-30T14:41:40.525Z,1.47
2018-06-30T14:44:10.025Z,1.42
2018-06-30T14:46:39.456Z,0.82
2018-06-30T14:49:08.999Z,1.70
2018-06-30T14:51:38.560Z,1.10
2018-06-30T14:54:07.913Z,1.25
2018-06-30T14:56:37.346Z,1.32
2018-06-30T14:59:06.846Z,1.40
2018-06-30T15:01:36.179Z,1.20
2018-06-30T15:04:05.698Z,1.30
2018-06-30T15:06:35.113Z,1.35
2018-06-30T15:09:09.355Z,1.00
2018-06-30T15:11:38.769Z,1.10
2018-06-30T15:14:08.147Z,1.05
2018-06-30T15:16:37.845Z,1.32
2018-06-30T15:19:07.632Z,1.12
2018-06-30T15:21:37.187Z,1.00
2018-06-30T15:24:07.830Z,1.40
2018-06-30T15:26:37.195Z,1.60
2018-06-30T15:29:06.708Z,1.10
2018-06-30T15:31:36.168Z,1.12
2018-06-30T15:34:05.559Z,1.00
2018-06-30T15:36:35.092Z,1.35
2018-06-30T15:39:06.579Z,1.55
2018-06-30T15:41:36.154Z,1.67
2018-06-30T15:44:06.130Z,1.00
2018-06-30T15:46:35.642Z,1.15
2018-06-30T15:49:05.439Z,1.30
2018-06-30T15:51:34.804Z,1.50
2018-06-30T15:54:04.347Z,1.55
2018-06-30T15:56:33.748Z,1.27
2018-06-30T15:59:03.204Z,1.50
2018-06-30T16:01:32.509Z,1.37
2018-06-30T16:04:01.869Z,1.50
2018-06-30T16:06:31.370Z,1.55
2018-06-30T16:09:00.818Z,1.30
2018-06-30T16:11:30.327Z,1.22
2018-06-30T16:13:59.829Z,1.17
2018-06-30T16:16:29.191Z,0.97
2018-06-30T16:18:58.676Z,1.87
2018-06-30T16:21:28.166Z,1.65
2018-06-30T16:23:57.566Z,1.20
2018-06-30T16:26:26.966Z,1.50
2018-06-30T16:28:56.494Z,1.30
2018-06-30T16:31:25.870Z,1.47
2018-06-30T16:33:55.234Z,1.40
2018-06-30T16:36:24.558Z,1.10
2018-06-30T16:38:53.813Z,1.37
2018-06-30T16:41:23.304Z,1.13
2018-06-30T16:43:53.043Z,1.30
2018-06-30T16:46:22.441Z,0.93
2018-06-30T16:48:52.003Z,1.05
2018-06-30T16:51:21.331Z,1.37
2018-06-30T16:53:51.096Z,1.10
2018-06-30T16:56:20.571Z,1.37
2018-06-30T16:58:49.972Z,1.17
2018-06-30T17:01:19.235Z,1.20
2018-06-30T17:03:48.541Z,1.45
2018-06-30T17:06:17.812Z,1.27
2018-06-30T17:08:47.081Z,1.20
2018-06-30T17:11:16.348Z,1.10
2018-06-30T17:13:45.614Z,1.05
2018-06-30T17:16:14.882Z,1.20
2018-06-30T17:18:44.208Z,0.88
2018-06-30T17:21:13.589Z,1.02
2018-06-30T17:23:42.888Z,1.02
2018-06-30T17:26:12.264Z,0.85
2018-06-30T17:28:41.509Z,1.42
2018-06-30T17:31:10.776Z,1.20
2018-06-30T17:33:40.123Z,0.60
2018-06-30T17:36:09.373Z,0.75
2018-06-30T17:38:38.370Z,1.10
2018-06-30T17:41:07.668Z,1.63
2018-06-30T17:43:36.964Z,1.17
2018-06-30T17:46:06.845Z,1.00
2018-06-30T17:48:35.966Z,1.27
2018-06-30T17:51:05.291Z,1.03
2018-06-30T17:53:34.739Z,1.13
2018-06-30T17:56:03.940Z,1.27
2018-06-30T17:58:33.194Z,1.20
2018-06-30T18:01:02.615Z,1.17
2018-06-30T18:03:31.997Z,1.53
2018-06-30T18:06:01.323Z,1.40
2018-06-30T18:08:30.543Z,1.73
2018-06-30T18:10:59.811Z,0.60
2018-06-30T18:13:29.061Z,1.10
2018-06-30T18:15:58.456Z,1.77
2018-06-30T18:18:27.658Z,1.10
2018-06-30T18:20:56.641Z,1.40
2018-06-30T18:23:25.866Z,1.60
2018-06-30T18:25:55.109Z,1.30
2018-06-30T18:28:24.390Z,0.80
2018-06-30T18:30:53.746Z,1.40
2018-06-30T18:33:22.992Z,1.17
2018-06-30T18:35:52.222Z,1.13
2018-06-30T18:38:21.542Z,1.60
2018-06-30T18:40:50.810Z,1.50
2018-06-30T18:43:20.055Z,1.70
2018-06-30T18:45:49.256Z,1.57
2018-06-30T18:48:18.361Z,1.43
2018-06-30T18:50:47.616Z,1.27
2018-06-30T18:53:16.970Z,1.77
2018-06-30T18:55:46.256Z,1.10
2018-06-30T18:58:15.530Z,1.27
2018-06-30T19:00:44.537Z,1.27
2018-06-30T19:03:13.853Z,2.87
2018-06-30T19:05:43.064Z,1.33
2018-06-30T19:08:12.282Z,1.80
2018-06-30T19:10:42.380Z,1.17
2018-06-30T19:13:11.585Z,1.60
2018-06-30T19:15:40.838Z,1.37
2018-06-30T19:18:10.006Z,0.83
2018-06-30T19:20:39.122Z,1.83
2018-06-30T19:23:08.135Z,1.00
2018-06-30T19:25:37.442Z,0.80
2018-06-30T19:28:06.865Z,1.20
2018-06-30T19:30:36.310Z,0.70
2018-06-30T19:33:05.720Z,1.07
2018-06-30T19:35:34.960Z,0.90
2018-06-30T19:38:04.264Z,1.30
2018-06-30T19:40:33.597Z,0.70
2018-06-30T19:43:02.970Z,1.47
2018-06-30T19:45:32.358Z,0.53
2018-06-30T19:48:01.643Z,0.80
2018-06-30T19:50:31.106Z,0.63
2018-06-30T19:53:00.448Z,1.00
2018-06-30T19:55:29.693Z,0.70
2018-06-30T19:57:59.015Z,0.60
2018-06-30T20:00:28.401Z,0.60
2018-06-30T20:02:57.811Z,0.40
2018-06-30T20:05:27.224Z,0.50
2018-06-30T20:07:56.769Z,0.40
2018-06-30T20:10:26.364Z,0.53
2018-06-30T20:12:55.641Z,0.30
2018-06-30T20:15:25.024Z,0.60
2018-06-30T20:17:54.360Z,0.30
2018-06-30T20:20:23.652Z,0.70
2018-06-30T20:22:52.945Z,0.50
2018-06-30T20:25:22.439Z,0.30
2018-06-30T20:27:51.727Z,0.23
2018-06-30T20:30:21.108Z,0.20
2018-06-30T20:32:50.391Z,0.30
2018-06-30T20:35:19.638Z,0.10
2018-06-30T20:37:48.886Z,0.47
2018-06-30T20:40:18.118Z,0.10
2018-06-30T20:42:47.344Z,0.37
2018-06-30T20:45:16.434Z,0.50
2018-06-30T20:47:45.464Z,0.50
2018-06-30T20:50:14.695Z,0.37
2018-06-30T20:52:43.981Z,0.97
2018-06-30T20:55:13.238Z,0.67
2018-06-30T20:57:42.499Z,0.20
2018-06-30T21:00:11.785Z,0.40
2018-06-30T21:02:41.069Z,0.23
2018-06-30T21:05:10.302Z,0.30
2018-06-30T21:07:39.557Z,0.37
2018-06-30T21:10:08.804Z,0.20
2018-06-30T21:12:38.228Z,0.50
2018-06-30T21:15:07.283Z,0.20
2018-06-30T21:17:36.850Z,0.20
2018-06-30T21:20:06.832Z,0.40
2018-06-30T21:22:36.227Z,0.20
2018-06-30T21:25:05.830Z,0.10
2018-06-30T21:27:35.123Z,0.30
2018-06-30T21:30:04.907Z,0.10
2018-06-30T21:32:34.379Z,0.30
2018-06-30T21:35:03.741Z,0.20
2018-06-30T21:37:33.262Z,0.67
2018-06-30T21:40:02.555Z,0.17
2018-06-30T21:42:31.858Z,0.50
2018-06-30T21:45:01.164Z,0.37
2018-06-30T21:47:30.412Z,0.60
2018-06-30T21:49:59.782Z,0.53
2018-06-30T21:52:29.061Z,0.30
2018-06-30T21:54:58.294Z,0.30
2018-06-30T21:57:27.314Z,0.67
2018-06-30T21:59:56.378Z,0.70
2018-06-30T22:02:25.595Z,0.33
2018-06-30T22:04:54.901Z,0.37
2018-06-30T22:07:24.303Z,1.03
2018-06-30T22:09:53.709Z,0.30
2018-06-30T22:12:23.019Z,0.10
2018-06-30T22:14:52.412Z,0.30
2018-06-30T22:17:21.778Z,0.20
2018-06-30T22:19:51.071Z,0.70
2018-06-30T22:22:20.301Z,0.13
2018-06-30T22:24:49.581Z,0.30
2018-06-30T22:27:18.545Z,0.30
2018-06-30T22:29:47.757Z,0.30
2018-06-30T22:32:16.938Z,0.23
2018-06-30T22:34:46.151Z,0.50
2018-06-30T22:37:15.365Z,0.20
2018-06-30T22:40:01.563Z,0.10
2018-06-30T22:42:30.770Z,0.23
2018-06-30T22:45:00.011Z,0.23
2018-06-30T22:47:30.224Z,0.10
2018-06-30T22:49:59.464Z,0.20
2018-06-30T22:52:28.659Z,0.20
2018-06-30T22:54:57.967Z,0.23
2018-06-30T22:57:27.196Z,0.17
2018-06-30T22:59:56.387Z,0.30
2018-06-30T23:02:25.630Z,0.30
2018-06-30T23:04:55.302Z,0.20
2018-06-30T23:07:24.555Z,0.23
2018-06-30T23:09:54.142Z,0.40
2018-06-30T23:12:23.463Z,0.40
2018-06-30T23:14:52.755Z,0.60
2018-06-30T23:17:21.981Z,0.30
2018-06-30T23:19:51.314Z,0.30
2018-06-30T23:22:44.059Z,0.30
2018-06-30T23:25:13.307Z,0.23
2018-06-30T23:27:42.498Z,0.30
2018-06-30T23:30:11.730Z,0.60
2018-06-30T23:32:40.975Z,0.40
2018-06-30T23:35:10.177Z,0.60
2018-06-30T23:37:39.426Z,0.30
2018-06-30T23:40:08.878Z,0.30
2018-06-30T23:42:38.174Z,0.37
2018-06-30T23:45:07.439Z,0.33
2018-06-30T23:47:36.682Z,0.33
2018-06-30T23:50:05.915Z,0.47
2018-06-30T23:52:35.787Z,1.07
2018-06-30T23:55:05.899Z,0.20
2018-06-30T23:57:35.151Z,0.40
